sim
Sign-in with your pilot id or email,
or register
Callsign
Passwort

Schedule Details

Flight Number: DLH1761 (1)
Departure: Larnaca International Airport (LCLK) at 15:05
Arrival: Munich Airport (EDDM) at 18:50
Route: Lufthansa Passenger Schedule. Enter filed route here before submitting Pirep.

Weather Information
Getting current METAR information for LCLK 191430Z 19011KT 9999 FEW030 31/24 Q1009 NOSIG
Getting current METAR information for EDDM 191420Z 04003KT 290V070 CAVOK 22/12 Q1018 NOSIG

Schedule Frequency

Route Map